Time;durP1;ratioP1;P1;durP2;ratioP2;P2;SDS_P1;SDS_P2;PMS_P1;PMS_P2;Temp;Humidity;BMP_temperature;BMP_pressure;BME280_temperature;BME280_humidity;BME280_pressure;Samples;Min_cycle;Max_cycle;Signal;HPM_P1;HPM_P2
2023/06/04 00:01:27;;;;;;;5.72;3.20;;;;;;;;;;5005980;28;20053;-81
2023/06/04 00:03:54;;;;;;;5.85;2.95;;;;;;;;;;5009437;28;20048;-79
2023/06/04 00:06:20;;;;;;;6.40;3.00;;;;;;;;;;5011301;28;20052;-79
2023/06/04 00:08:47;;;;;;;4.93;2.78;;;;;;;;;;5030388;28;20451;-78
2023/06/04 00:11:13;;;;;;;4.82;2.28;;;;;;;;;;5013107;28;20158;-79
2023/06/04 00:13:40;;;;;;;3.95;2.25;;;;;;;;;;5030467;28;20049;-79
2023/06/04 00:16:07;;;;;;;4.43;2.20;;;;;;;;;;5012647;28;20076;-78
2023/06/04 00:18:33;;;;;;;4.80;2.20;;;;;;;;;;5014542;28;20443;-78
2023/06/04 00:21:00;;;;;;;4.40;2.50;;;;;;;;;;5012570;28;20042;-78
2023/06/04 00:23:30;;;;;;;4.82;2.42;;;;;;;;;;5013302;28;20092;-78
2023/06/04 00:25:56;;;;;;;6.82;2.63;;;;;;;;;;5011700;28;20096;-80
2023/06/04 00:28:23;;;;;;;4.85;2.65;;;;;;;;;;5012608;28;20042;-79
2023/06/04 00:30:50;;;;;;;8.10;2.60;;;;;;;;;;4995315;28;20041;-78
2023/06/04 00:33:16;;;;;;;3.55;2.30;;;;;;;;;;5013804;28;20494;-79
2023/06/04 00:36:00;;;;;;;5.43;2.60;;;;;;;;;;5014928;28;20042;-80
2023/06/04 00:38:27;;;;;;;4.90;2.42;;;;;;;;;;5014730;28;20056;-79
2023/06/04 00:40:54;;;;;;;6.38;2.25;;;;;;;;;;5012666;28;20037;-80
2023/06/04 00:43:20;;;;;;;5.35;2.38;;;;;;;;;;4996172;28;20117;-81
2023/06/04 00:45:47;;;;;;;5.20;2.47;;;;;;;;;;5011327;28;20038;-79
2023/06/04 00:48:13;;;;;;;9.48;2.70;;;;;;;;;;5010885;28;20579;-79
2023/06/04 00:50:41;;;;;;;5.43;2.10;;;;;;;;;;5011431;28;20528;-79
2023/06/04 00:53:08;;;;;;;6.45;2.40;;;;;;;;;;5011430;28;20104;-78
2023/06/04 00:55:35;;;;;;;4.38;2.42;;;;;;;;;;4996016;28;20074;-80
2023/06/04 00:58:03;;;;;;;4.63;2.10;;;;;;;;;;5011110;28;20496;-78
2023/06/04 01:00:32;;;;;;;4.47;2.25;;;;;;;;;;5009201;28;20048;-81
2023/06/04 01:03:03;;;;;;;4.93;2.00;;;;;;;;;;4994668;28;20060;-82
2023/06/04 01:05:36;;;;;;;4.07;2.40;;;;;;;;;;5012244;28;20225;-79
2023/06/04 01:08:04;;;;;;;6.60;2.40;;;;;;;;;;4995593;28;20073;-79
2023/06/04 01:10:30;;;;;;;4.38;2.40;;;;;;;;;;4993808;28;20249;-82
2023/06/04 01:12:57;;;;;;;5.57;2.70;;;;;;;;;;5009977;28;20052;-82
2023/06/04 01:15:24;;;;;;;4.53;2.80;;;;;;;;;;5010263;28;20125;-80
2023/06/04 01:17:52;;;;;;;5.30;2.92;;;;;;;;;;5011164;28;20122;-80
2023/06/04 01:20:31;;;;;;;6.97;3.20;;;;;;;;;;5010638;28;20096;-79
2023/06/04 01:23:19;;;;;;;7.93;3.22;;;;;;;;;;4994765;28;20137;-80
2023/06/04 01:25:49;;;;;;;5.70;2.90;;;;;;;;;;4993815;28;20462;-81
2023/06/04 01:28:17;;;;;;;7.45;2.83;;;;;;;;;;4992160;28;20490;-81
2023/06/04 01:30:45;;;;;;;5.03;2.70;;;;;;;;;;4992532;28;20088;-79
2023/06/04 01:33:13;;;;;;;6.88;2.97;;;;;;;;;;4993481;28;20069;-80
2023/06/04 01:35:40;;;;;;;4.85;2.50;;;;;;;;;;4994103;28;20045;-81
2023/06/04 01:38:07;;;;;;;8.25;3.10;;;;;;;;;;4994573;28;20478;-79
2023/06/04 01:40:34;;;;;;;5.57;3.00;;;;;;;;;;5008748;28;20435;-80
2023/06/04 01:43:01;;;;;;;4.78;2.63;;;;;;;;;;4993467;28;20057;-80
2023/06/04 01:45:28;;;;;;;5.25;2.63;;;;;;;;;;5009507;28;20046;-80
2023/06/04 01:47:56;;;;;;;5.22;2.90;;;;;;;;;;5006347;28;20491;-78
2023/06/04 01:50:23;;;;;;;5.38;2.50;;;;;;;;;;4999203;28;20097;-77
2023/06/04 01:52:50;;;;;;;4.93;2.78;;;;;;;;;;5014281;28;20057;-81
2023/06/04 01:55:17;;;;;;;7.05;2.83;;;;;;;;;;5015281;28;20073;-81
2023/06/04 01:57:44;;;;;;;5.43;2.80;;;;;;;;;;4996836;28;20061;-79
2023/06/04 02:00:11;;;;;;;7.63;3.35;;;;;;;;;;5003438;28;20056;-80
2023/06/04 02:02:38;;;;;;;6.50;3.05;;;;;;;;;;5014976;28;20046;-80
2023/06/04 02:05:09;;;;;;;9.38;3.00;;;;;;;;;;5013520;28;20057;-79
2023/06/04 02:07:38;;;;;;;5.07;3.05;;;;;;;;;;4998252;28;20485;-78
2023/06/04 02:10:05;;;;;;;6.10;3.20;;;;;;;;;;5018468;28;20164;-80
2023/06/04 02:12:32;;;;;;;6.88;3.40;;;;;;;;;;5014777;28;20103;-78
2023/06/04 02:14:59;;;;;;;6.13;3.33;;;;;;;;;;5015596;28;20046;-81
2023/06/04 02:17:25;;;;;;;7.45;2.88;;;;;;;;;;4998034;28;20531;-80
2023/06/04 02:19:52;;;;;;;7.60;3.20;;;;;;;;;;5018141;28;20514;-77
2023/06/04 02:22:19;;;;;;;6.97;3.40;;;;;;;;;;5011514;28;20042;-80
2023/06/04 02:24:47;;;;;;;6.80;3.22;;;;;;;;;;5010792;28;20034;-80
2023/06/04 02:27:14;;;;;;;6.30;3.05;;;;;;;;;;5011861;28;20045;-80
2023/06/04 02:29:41;;;;;;;7.93;3.40;;;;;;;;;;5009895;28;20473;-80
2023/06/04 02:32:08;;;;;;;7.30;3.10;;;;;;;;;;5008340;28;20164;-79
2023/06/04 02:34:35;;;;;;;7.22;3.65;;;;;;;;;;5009756;28;20050;-80
2023/06/04 02:37:02;;;;;;;7.03;3.63;;;;;;;;;;5010711;28;20060;-80
2023/06/04 02:39:30;;;;;;;11.13;4.57;;;;;;;;;;5001536;28;20398;-80
2023/06/04 02:41:56;;;;;;;8.50;4.20;;;;;;;;;;4993140;28;20133;-78
2023/06/04 02:44:23;;;;;;;8.23;4.03;;;;;;;;;;4995974;28;20124;-79
2023/06/04 02:46:53;;;;;;;7.07;3.90;;;;;;;;;;5014700;28;20478;-76
2023/06/04 02:49:19;;;;;;;5.40;2.70;;;;;;;;;;5029987;28;20045;-79
2023/06/04 02:51:46;;;;;;;6.43;3.47;;;;;;;;;;5030773;28;20076;-80
2023/06/04 02:54:13;;;;;;;7.15;3.30;;;;;;;;;;5032191;28;20106;-78
2023/06/04 02:56:40;;;;;;;6.30;3.00;;;;;;;;;;5027170;28;20133;-80
2023/06/04 02:59:09;;;;;;;4.88;3.20;;;;;;;;;;5010628;28;20042;-79
2023/06/04 03:01:39;;;;;;;7.03;3.00;;;;;;;;;;5008863;28;20493;-80
2023/06/04 03:04:09;;;;;;;5.80;3.47;;;;;;;;;;5009288;28;20053;-80
2023/06/04 03:06:38;;;;;;;6.75;3.38;;;;;;;;;;5009685;28;20074;-81
2023/06/04 03:09:04;;;;;;;6.95;3.22;;;;;;;;;;5009999;28;20528;-79
2023/06/04 03:11:31;;;;;;;7.43;3.05;;;;;;;;;;4992634;28;20606;-82
2023/06/04 03:13:58;;;;;;;10.10;3.38;;;;;;;;;;5011800;28;20052;-80
2023/06/04 03:16:24;;;;;;;5.80;3.45;;;;;;;;;;4993581;28;20441;-82
2023/06/04 03:18:51;;;;;;;6.57;3.60;;;;;;;;;;5009818;28;20046;-80
2023/06/04 03:21:18;;;;;;;7.50;3.67;;;;;;;;;;5008447;28;20077;-78
2023/06/04 03:23:45;;;;;;;7.38;3.50;;;;;;;;;;4994368;28;20053;-77
2023/06/04 03:26:14;;;;;;;5.95;3.42;;;;;;;;;;4994129;28;20050;-80
2023/06/04 03:28:41;;;;;;;6.53;3.25;;;;;;;;;;4994691;28;20065;-79
2023/06/04 03:31:11;;;;;;;7.35;3.33;;;;;;;;;;5008785;28;20049;-80
2023/06/04 03:33:37;;;;;;;7.13;3.70;;;;;;;;;;4992475;28;20042;-78
2023/06/04 03:36:05;;;;;;;8.75;3.67;;;;;;;;;;5010097;28;20066;-79
2023/06/04 03:38:31;;;;;;;7.60;4.00;;;;;;;;;;5008802;28;20046;-80
2023/06/04 03:40:58;;;;;;;10.30;4.00;;;;;;;;;;5006736;28;20572;-80
2023/06/04 03:43:25;;;;;;;7.00;3.75;;;;;;;;;;4991753;28;20046;-81
2023/06/04 03:45:56;;;;;;;6.75;3.53;;;;;;;;;;4992893;28;20057;-80
2023/06/04 03:48:23;;;;;;;6.45;3.30;;;;;;;;;;5008616;28;20077;-78
2023/06/04 03:50:50;;;;;;;6.97;3.33;;;;;;;;;;5011106;28;20050;-80
2023/06/04 03:53:17;;;;;;;7.93;3.75;;;;;;;;;;5029886;28;20043;-80
2023/06/04 03:55:44;;;;;;;7.63;3.60;;;;;;;;;;5022578;28;20045;-80
2023/06/04 03:58:11;;;;;;;6.43;3.78;;;;;;;;;;5008939;28;20089;-79
2023/06/04 04:00:42;;;;;;;5.97;3.55;;;;;;;;;;5007723;28;20045;-78
2023/06/04 04:03:09;;;;;;;9.90;4.05;;;;;;;;;;5007601;28;20046;-79
2023/06/04 04:05:37;;;;;;;6.65;3.45;;;;;;;;;;4993474;28;20053;-77
2023/06/04 04:08:04;;;;;;;7.18;3.88;;;;;;;;;;5009870;28;20069;-80
2023/06/04 04:10:32;;;;;;;9.95;4.00;;;;;;;;;;5009287;28;20046;-80
2023/06/04 04:12:59;;;;;;;7.07;4.22;;;;;;;;;;5008621;28;20103;-78
2023/06/04 04:15:29;;;;;;;7.68;3.72;;;;;;;;;;4993152;28;20038;-77
2023/06/04 04:17:59;;;;;;;10.90;3.78;;;;;;;;;;5009704;28;20109;-79
2023/06/04 04:20:27;;;;;;;9.73;4.00;;;;;;;;;;4994283;28;20045;-79
2023/06/04 04:22:59;;;;;;;7.95;4.28;;;;;;;;;;5007603;28;20054;-78
2023/06/04 04:25:27;;;;;;;6.80;3.90;;;;;;;;;;5010942;28;20073;-80
2023/06/04 04:27:56;;;;;;;7.53;3.90;;;;;;;;;;5010295;28;20601;-81
2023/06/04 04:30:24;;;;;;;12.68;4.30;;;;;;;;;;4991737;28;20130;-79
2023/06/04 04:32:51;;;;;;;9.30;3.95;;;;;;;;;;4992947;28;20042;-78
2023/06/04 04:35:24;;;;;;;6.97;3.75;;;;;;;;;;5008993;28;20038;-79
2023/06/04 04:37:55;;;;;;;9.10;4.07;;;;;;;;;;5009716;28;20058;-77
2023/06/04 04:40:23;;;;;;;7.13;4.18;;;;;;;;;;4992077;28;20050;-81
2023/06/04 04:42:51;;;;;;;8.10;4.13;;;;;;;;;;5008237;28;20049;-78
2023/06/04 04:45:19;;;;;;;7.22;4.03;;;;;;;;;;4993485;28;20077;-79
2023/06/04 04:47:47;;;;;;;10.98;4.60;;;;;;;;;;4998641;28;20077;-78
2023/06/04 04:50:14;;;;;;;6.68;4.20;;;;;;;;;;5008060;28;20053;-79
2023/06/04 04:52:40;;;;;;;9.45;4.22;;;;;;;;;;5009292;28;20485;-80
2023/06/04 04:55:07;;;;;;;9.88;4.05;;;;;;;;;;5008959;28;20041;-79
2023/06/04 04:57:35;;;;;;;11.55;4.15;;;;;;;;;;5011197;28;20495;-79
2023/06/04 05:00:05;;;;;;;11.75;4.32;;;;;;;;;;5008314;28;20225;-79
2023/06/04 05:02:32;;;;;;;8.75;4.47;;;;;;;;;;4995854;28;20042;-77
2023/06/04 05:04:58;;;;;;;8.10;4.50;;;;;;;;;;4994914;28;20523;-79
2023/06/04 05:07:25;;;;;;;8.40;4.65;;;;;;;;;;4994845;28;20042;-80
2023/06/04 05:09:53;;;;;;;13.82;6.28;;;;;;;;;;4994847;28;20065;-78
2023/06/04 05:12:20;;;;;;;16.70;7.05;;;;;;;;;;4994501;28;20048;-79
2023/06/04 05:14:47;;;;;;;16.17;7.57;;;;;;;;;;4997914;28;20068;-80
2023/06/04 05:17:16;;;;;;;16.67;8.13;;;;;;;;;;5018869;28;20046;-76
2023/06/04 05:19:44;;;;;;;20.38;8.15;;;;;;;;;;5003514;28;20081;-78
2023/06/04 05:22:11;;;;;;;19.10;8.88;;;;;;;;;;4999762;28;20152;-78
2023/06/04 05:24:37;;;;;;;17.23;8.68;;;;;;;;;;5014475;28;20239;-79
2023/06/04 05:27:05;;;;;;;22.13;8.77;;;;;;;;;;5014243;28;20042;-78
2023/06/04 05:29:32;;;;;;;16.63;7.53;;;;;;;;;;4998673;28;20053;-79
2023/06/04 05:31:58;;;;;;;16.70;7.20;;;;;;;;;;5020352;28;20152;-79
2023/06/04 05:34:26;;;;;;;16.77;7.80;;;;;;;;;;5015318;28;20042;-80
2023/06/04 05:36:54;;;;;;;17.52;7.25;;;;;;;;;;4996948;28;20046;-79
2023/06/04 05:39:23;;;;;;;13.15;6.47;;;;;;;;;;5014588;28;20041;-80
2023/06/04 05:41:59;;;;;;;16.67;6.82;;;;;;;;;;5013849;28;20052;-80
2023/06/04 05:44:25;;;;;;;13.70;6.05;;;;;;;;;;5014255;28;20061;-82
2023/06/04 05:46:52;;;;;;;12.40;5.15;;;;;;;;;;4998875;28;20050;-82
2023/06/04 05:49:20;;;;;;;12.52;4.60;;;;;;;;;;5011568;28;20126;-83
2023/06/04 05:51:46;;;;;;;10.10;4.30;;;;;;;;;;5011893;28;20049;-80
2023/06/04 05:54:13;;;;;;;7.10;3.60;;;;;;;;;;4986336;28;20077;-81
2023/06/04 05:56:42;;;;;;;8.10;4.10;;;;;;;;;;5004412;28;20434;-81
2023/06/04 05:59:09;;;;;;;10.40;3.67;;;;;;;;;;5007904;28;20041;-79
2023/06/04 06:01:36;;;;;;;11.88;4.05;;;;;;;;;;4993029;28;20265;-81
2023/06/04 06:04:02;;;;;;;11.70;4.10;;;;;;;;;;5011785;28;20054;-84
2023/06/04 06:06:30;;;;;;;9.23;3.60;;;;;;;;;;5018292;28;20129;-82
2023/06/04 06:08:58;;;;;;;10.45;4.00;;;;;;;;;;5016437;28;20125;-85
2023/06/04 06:11:26;;;;;;;6.68;3.63;;;;;;;;;;5002811;28;20042;-78
2023/06/04 06:13:54;;;;;;;8.55;3.30;;;;;;;;;;5026027;28;20041;-84
2023/06/04 06:16:21;;;;;;;8.10;3.17;;;;;;;;;;5025386;28;20050;-80
2023/06/04 06:18:49;;;;;;;8.02;3.03;;;;;;;;;;5001333;28;20053;-81
2023/06/04 06:21:15;;;;;;;5.85;2.88;;;;;;;;;;5003059;28;20077;-81
2023/06/04 06:23:42;;;;;;;7.40;3.13;;;;;;;;;;5002678;28;20184;-82
2023/06/04 06:26:09;;;;;;;7.82;3.40;;;;;;;;;;5006371;28;20046;-82
2023/06/04 06:28:42;;;;;;;6.30;2.95;;;;;;;;;;5032919;28;20087;-84
2023/06/04 06:31:09;;;;;;;7.65;3.30;;;;;;;;;;5014398;28;20180;-82
2023/06/04 06:33:40;;;;;;;7.45;2.90;;;;;;;;;;5004246;28;20050;-82
2023/06/04 06:36:08;;;;;;;8.35;2.72;;;;;;;;;;5015775;28;20060;-81
2023/06/04 06:38:34;;;;;;;6.40;2.38;;;;;;;;;;5007286;28;20050;-81
2023/06/04 06:41:01;;;;;;;6.97;2.90;;;;;;;;;;5007624;28;20050;-83
2023/06/04 06:43:27;;;;;;;5.53;2.75;;;;;;;;;;4992184;28;20216;-80
2023/06/04 06:45:54;;;;;;;5.97;3.00;;;;;;;;;;4995468;28;20052;-81
2023/06/04 06:48:21;;;;;;;8.25;2.90;;;;;;;;;;5010263;28;20477;-80
2023/06/04 06:50:48;;;;;;;4.63;2.35;;;;;;;;;;5008966;28;20049;-83
2023/06/04 06:53:14;;;;;;;5.80;2.20;;;;;;;;;;5013274;28;20117;-80
2023/06/04 06:55:41;;;;;;;3.60;1.92;;;;;;;;;;5012155;28;20084;-82
2023/06/04 06:58:07;;;;;;;6.18;1.52;;;;;;;;;;4997822;28;20084;-81
2023/06/04 07:00:34;;;;;;;9.95;1.60;;;;;;;;;;4993174;28;20069;-86
2023/06/04 07:03:00;;;;;;;2.85;1.45;;;;;;;;;;5013068;28;20359;-84
2023/06/04 07:05:27;;;;;;;4.25;1.63;;;;;;;;;;4997144;28;20574;-82
2023/06/04 07:07:54;;;;;;;2.50;1.23;;;;;;;;;;5010254;28;20073;-82
2023/06/04 07:10:20;;;;;;;3.22;1.40;;;;;;;;;;5011965;28;20046;-81
2023/06/04 07:12:48;;;;;;;6.32;1.58;;;;;;;;;;5015632;28;20149;-79
2023/06/04 07:15:14;;;;;;;4.05;1.30;;;;;;;;;;5016310;28;20050;-81
2023/06/04 07:17:41;;;;;;;3.33;1.25;;;;;;;;;;4996121;28;20046;-83
2023/06/04 07:20:09;;;;;;;4.72;1.45;;;;;;;;;;4992929;28;20061;-83
2023/06/04 07:22:35;;;;;;;3.25;1.08;;;;;;;;;;5012083;28;20219;-84
2023/06/04 07:25:02;;;;;;;7.10;1.25;;;;;;;;;;5012094;28;20054;-83
2023/06/04 07:27:29;;;;;;;3.00;1.55;;;;;;;;;;5019829;28;20088;-85
2023/06/04 07:29:55;;;;;;;4.95;1.38;;;;;;;;;;5013357;28;20064;-82
2023/06/04 07:32:22;;;;;;;3.17;1.20;;;;;;;;;;5009871;28;20049;-82
2023/06/04 07:34:49;;;;;;;5.85;1.23;;;;;;;;;;5010953;28;20260;-84
2023/06/04 07:37:15;;;;;;;3.00;1.00;;;;;;;;;;5011785;28;20636;-82
2023/06/04 07:39:42;;;;;;;4.50;1.30;;;;;;;;;;5002963;28;20046;-83
2023/06/04 07:42:08;;;;;;;3.38;1.10;;;;;;;;;;5008691;28;20108;-82
2023/06/04 07:44:36;;;;;;;2.78;1.00;;;;;;;;;;5007787;28;20041;-85
2023/06/04 07:47:03;;;;;;;3.03;1.00;;;;;;;;;;5013672;28;20046;-84
2023/06/04 07:49:30;;;;;;;1.75;1.17;;;;;;;;;;5000895;28;20050;-83
2023/06/04 07:51:56;;;;;;;3.15;1.33;;;;;;;;;;4992362;28;20077;-84
2023/06/04 07:54:23;;;;;;;6.03;1.55;;;;;;;;;;4999171;28;20042;-84
2023/06/04 07:56:55;;;;;;;3.70;1.30;;;;;;;;;;5007444;28;20042;-81
2023/06/04 07:59:22;;;;;;;3.17;1.20;;;;;;;;;;5016438;28;20050;-86
2023/06/04 08:01:52;;;;;;;8.85;1.65;;;;;;;;;;5015666;28;22468;-84
2023/06/04 08:04:21;;;;;;;5.45;1.17;;;;;;;;;;4982773;28;20057;-85
2023/06/04 08:06:50;;;;;;;1.70;1.10;;;;;;;;;;5014048;28;20108;-84
2023/06/04 08:09:32;;;;;;;4.63;1.50;;;;;;;;;;4995438;28;20081;-86
2023/06/04 08:12:16;;;;;;;10.15;1.50;;;;;;;;;;4971965;28;20132;-83
2023/06/04 08:14:43;;;;;;;10.60;1.15;;;;;;;;;;4965580;28;21008;-85
2023/06/04 08:17:10;;;;;;;2.78;1.30;;;;;;;;;;4989729;28;20054;-86
2023/06/04 08:19:37;;;;;;;4.45;1.25;;;;;;;;;;5005652;28;20046;-83
2023/06/04 08:22:04;;;;;;;3.63;1.20;;;;;;;;;;5020523;28;20093;-83
2023/06/04 08:24:30;;;;;;;5.10;1.50;;;;;;;;;;5015116;28;20050;-83
2023/06/04 08:26:57;;;;;;;2.90;1.23;;;;;;;;;;4956663;28;20046;-84
2023/06/04 08:29:27;;;;;;;1.83;1.20;;;;;;;;;;4986842;28;20056;-81
2023/06/04 08:32:28;;;;;;;3.70;1.50;;;;;;;;;;4955256;28;20139;-84
2023/06/04 08:35:13;;;;;;;4.97;1.50;;;;;;;;;;4976842;28;20053;-85
2023/06/04 08:38:08;;;;;;;3.15;1.20;;;;;;;;;;5001426;28;20433;-69
2023/06/04 08:40:37;;;;;;;3.60;1.52;;;;;;;;;;5005448;28;20042;-71
2023/06/04 08:43:04;;;;;;;3.00;1.20;;;;;;;;;;5003285;28;20136;-70
2023/06/04 08:45:32;;;;;;;2.92;1.33;;;;;;;;;;5002630;28;20041;-70
2023/06/04 08:48:00;;;;;;;6.13;1.33;;;;;;;;;;5006403;28;20744;-70
2023/06/04 08:50:27;;;;;;;6.57;1.42;;;;;;;;;;5005486;28;20041;-70
2023/06/04 08:52:59;;;;;;;2.03;1.13;;;;;;;;;;4992756;28;20136;-85
2023/06/04 08:55:30;;;;;;;6.70;0.98;;;;;;;;;;5006067;28;20164;-83
2023/06/04 09:06:37;;;;;;;6.55;1.23;;;;;;;;;;4837860;29;20044;-85
2023/06/04 09:09:34;;;;;;;2.08;1.05;;;;;;;;;;4841585;29;20060;-84
2023/06/04 09:21:08;;;;;;;4.68;1.27;;;;;;;;;;4851964;29;20043;-86
2023/06/04 09:24:50;;;;;;;6.22;1.33;;;;;;;;;;4890806;29;20072;-84
2023/06/04 09:27:34;;;;;;;2.85;1.23;;;;;;;;;;4844730;29;20044;-85
2023/06/04 09:30:55;;;;;;;3.15;1.40;;;;;;;;;;4866981;29;20450;-84
2023/06/04 09:39:13;;;;;;;;;;;;;;;;;;;;;
2023/06/04 09:45:06;;;;;;;;;;;;;;;;;;;;;
2023/06/04 09:48:07;;;;;;;5.28;1.10;;;;;;;;;;4933877;28;20133;-85
2023/06/04 09:54:48;;;;;;;2.15;1.17;;;;;;;;;;4921327;28;20043;-80
2023/06/04 09:57:18;;;;;;;2.05;1.10;;;;;;;;;;4979612;28;20076;-82
2023/06/04 09:59:49;;;;;;;3.58;1.30;;;;;;;;;;5001971;28;20049;-83
2023/06/04 10:02:20;;;;;;;3.80;1.63;;;;;;;;;;5006137;28;20045;-84
2023/06/04 10:05:02;;;;;;;4.60;1.30;;;;;;;;;;4979744;28;20050;-82
2023/06/04 10:07:29;;;;;;;4.20;1.30;;;;;;;;;;4988067;28;20050;-80
2023/06/04 10:09:55;;;;;;;3.60;1.42;;;;;;;;;;4990983;28;20053;-79
2023/06/04 10:12:30;;;;;;;5.30;1.30;;;;;;;;;;5005754;28;20463;-79
2023/06/04 10:15:09;;;;;;;5.32;1.30;;;;;;;;;;4988303;28;20057;-73
2023/06/04 10:17:37;;;;;;;2.58;1.20;;;;;;;;;;4993687;28;20100;-84
2023/06/04 10:20:05;;;;;;;1.95;1.02;;;;;;;;;;5006297;28;20125;-82
2023/06/04 10:22:32;;;;;;;4.95;1.17;;;;;;;;;;5011355;28;20092;-83
2023/06/04 10:25:00;;;;;;;5.50;1.27;;;;;;;;;;5005105;28;20049;-76
2023/06/04 10:27:26;;;;;;;5.10;1.20;;;;;;;;;;5008104;28;20490;-76
2023/06/04 10:29:54;;;;;;;4.75;1.40;;;;;;;;;;4989270;28;20113;-76
2023/06/04 10:32:20;;;;;;;3.38;0.90;;;;;;;;;;5008417;28;20046;-78
2023/06/04 10:34:48;;;;;;;1.95;1.08;;;;;;;;;;4999505;28;20052;-81
2023/06/04 10:37:21;;;;;;;3.30;1.23;;;;;;;;;;5018558;28;20046;-80
2023/06/04 10:39:57;;;;;;;6.13;1.35;;;;;;;;;;5013334;28;20521;-83
2023/06/04 10:42:24;;;;;;;5.43;1.20;;;;;;;;;;5014254;28;20049;-79
2023/06/04 10:44:52;;;;;;;4.38;1.20;;;;;;;;;;5003908;28;20134;-77
2023/06/04 10:47:24;;;;;;;4.13;1.20;;;;;;;;;;5042546;28;20104;-78
2023/06/04 10:49:51;;;;;;;2.25;1.30;;;;;;;;;;5020889;28;20196;-80
2023/06/04 10:52:18;;;;;;;3.65;1.20;;;;;;;;;;5018774;28;20129;-84
2023/06/04 10:54:46;;;;;;;2.97;1.20;;;;;;;;;;4994312;28;20054;-81
2023/06/04 10:57:13;;;;;;;6.75;1.33;;;;;;;;;;5015932;28;20692;-79
2023/06/04 10:59:40;;;;;;;1.65;1.10;;;;;;;;;;5018092;28;20069;-81
2023/06/04 11:02:07;;;;;;;2.63;1.20;;;;;;;;;;5002305;28;20101;-81
2023/06/04 11:04:34;;;;;;;5.50;1.38;;;;;;;;;;4997142;28;20187;-82
2023/06/04 11:07:02;;;;;;;1.95;1.30;;;;;;;;;;5004694;28;20042;-87
2023/06/04 11:09:50;;;;;;;5.15;1.33;;;;;;;;;;4991083;28;20544;-82
2023/06/04 11:12:40;;;;;;;5.82;1.20;;;;;;;;;;5007998;28;20038;-82
2023/06/04 11:15:07;;;;;;;1.98;1.20;;;;;;;;;;5000659;28;20042;-86
2023/06/04 11:17:33;;;;;;;8.15;1.25;;;;;;;;;;5010655;28;20530;-82
2023/06/04 11:20:00;;;;;;;6.35;1.20;;;;;;;;;;5008076;28;20046;-81
2023/06/04 11:22:28;;;;;;;1.48;0.93;;;;;;;;;;4995797;28;20073;-84
2023/06/04 11:25:01;;;;;;;1.83;1.20;;;;;;;;;;5017001;28;20060;-80
2023/06/04 11:27:32;;;;;;;5.50;1.23;;;;;;;;;;4990848;28;20185;-88
2023/06/04 11:30:03;;;;;;;2.63;1.20;;;;;;;;;;4999549;28;20054;-77
2023/06/04 11:32:30;;;;;;;3.55;1.50;;;;;;;;;;5021728;28;20137;-85
2023/06/04 11:35:04;;;;;;;1.73;1.30;;;;;;;;;;4969220;28;20104;-88
2023/06/04 11:37:32;;;;;;;2.07;1.40;;;;;;;;;;5004850;28;20056;-84
2023/06/04 11:40:00;;;;;;;5.75;1.30;;;;;;;;;;5004295;28;20041;-78
2023/06/04 11:42:30;;;;;;;2.55;1.02;;;;;;;;;;5013752;28;20053;-81
2023/06/04 11:45:00;;;;;;;3.42;1.20;;;;;;;;;;5020434;28;20061;-78
2023/06/04 11:47:29;;;;;;;3.15;1.23;;;;;;;;;;5004933;28;20045;-83
2023/06/04 11:49:56;;;;;;;5.78;1.20;;;;;;;;;;5009118;28;20112;-83
2023/06/04 11:52:23;;;;;;;5.57;1.70;;;;;;;;;;4996175;28;20057;-86
2023/06/04 11:55:20;;;;;;;4.32;1.40;;;;;;;;;;5004737;28;20052;-84
2023/06/04 11:57:48;;;;;;;1.95;1.40;;;;;;;;;;5011555;28;20049;-85
2023/06/04 12:00:21;;;;;;;2.35;1.05;;;;;;;;;;5003609;28;20105;-85
2023/06/04 12:03:10;;;;;;;3.58;1.30;;;;;;;;;;4978087;28;20457;-86
2023/06/04 12:05:48;;;;;;;4.15;1.50;;;;;;;;;;5004945;28;20064;-81
2023/06/04 12:08:15;;;;;;;1.35;1.02;;;;;;;;;;5011160;28;20065;-83
2023/06/04 12:10:42;;;;;;;2.13;1.25;;;;;;;;;;5016587;28;20133;-84
2023/06/04 12:13:09;;;;;;;5.90;1.27;;;;;;;;;;5030727;28;20045;-86
2023/06/04 12:15:38;;;;;;;4.75;1.40;;;;;;;;;;5008629;28;20045;-86
2023/06/04 12:18:09;;;;;;;3.50;1.52;;;;;;;;;;5007335;28;20113;-84
2023/06/04 12:20:36;;;;;;;4.15;1.33;;;;;;;;;;5021572;28;20050;-84
2023/06/04 12:23:04;;;;;;;4.65;1.55;;;;;;;;;;5023041;28;20129;-83
2023/06/04 12:25:31;;;;;;;3.05;1.52;;;;;;;;;;5022567;28;20041;-82
2023/06/04 12:27:58;;;;;;;8.00;1.30;;;;;;;;;;5023499;28;20053;-86
2023/06/04 12:30:35;;;;;;;10.63;1.50;;;;;;;;;;4997093;28;20038;-83
2023/06/04 12:33:01;;;;;;;6.93;1.30;;;;;;;;;;5011127;28;20046;-82
2023/06/04 12:35:28;;;;;;;3.45;1.35;;;;;;;;;;5012085;28;20069;-83
2023/06/04 12:37:55;;;;;;;2.92;1.33;;;;;;;;;;5016487;28;20046;-83
2023/06/04 12:40:21;;;;;;;2.75;1.40;;;;;;;;;;5009268;28;20479;-82
2023/06/04 12:42:51;;;;;;;2.45;1.27;;;;;;;;;;5014409;28;20065;-85
2023/06/04 12:45:18;;;;;;;5.50;1.40;;;;;;;;;;5031890;28;20075;-83
2023/06/04 12:47:46;;;;;;;2.38;1.10;;;;;;;;;;5035049;28;20041;-85
2023/06/04 12:50:15;;;;;;;2.30;1.30;;;;;;;;;;5037947;28;20345;-83
2023/06/04 12:52:42;;;;;;;3.17;1.45;;;;;;;;;;5037033;28;20045;-83
2023/06/04 12:55:09;;;;;;;3.10;1.30;;;;;;;;;;5034012;28;20050;-84
2023/06/04 12:57:35;;;;;;;2.72;1.55;;;;;;;;;;5021490;28;20082;-84
2023/06/04 13:00:04;;;;;;;3.05;1.30;;;;;;;;;;5014449;28;20037;-83
2023/06/04 13:02:30;;;;;;;3.38;1.25;;;;;;;;;;5020700;28;20041;-83
2023/06/04 13:04:57;;;;;;;3.03;1.40;;;;;;;;;;5038653;28;20128;-83
2023/06/04 13:07:24;;;;;;;3.00;1.20;;;;;;;;;;5036058;28;22233;-82
2023/06/04 13:09:53;;;;;;;1.33;1.00;;;;;;;;;;5034933;28;20076;-85
2023/06/04 13:12:20;;;;;;;2.22;1.17;;;;;;;;;;5036920;28;20185;-83
2023/06/04 13:14:47;;;;;;;2.33;1.10;;;;;;;;;;5033891;28;20187;-82
2023/06/04 13:17:13;;;;;;;3.03;1.13;;;;;;;;;;5035281;28;20144;-84
2023/06/04 13:19:46;;;;;;;4.85;1.27;;;;;;;;;;5035034;28;20057;-82
2023/06/04 13:22:13;;;;;;;3.40;1.20;;;;;;;;;;5036299;28;20037;-83
2023/06/04 13:24:40;;;;;;;6.05;1.25;;;;;;;;;;5034624;28;20072;-85
2023/06/04 13:27:06;;;;;;;2.88;1.20;;;;;;;;;;5034536;28;20052;-83
2023/06/04 13:29:34;;;;;;;3.22;1.20;;;;;;;;;;5035166;28;20056;-82
2023/06/04 13:32:01;;;;;;;2.97;1.40;;;;;;;;;;5019822;28;20147;-83
2023/06/04 13:34:27;;;;;;;2.13;1.20;;;;;;;;;;5037862;28;20069;-82
2023/06/04 13:36:55;;;;;;;4.72;1.40;;;;;;;;;;5037262;28;20496;-83
2023/06/04 13:39:22;;;;;;;3.10;1.20;;;;;;;;;;5031919;28;20733;-83
2023/06/04 13:41:49;;;;;;;3.03;1.30;;;;;;;;;;5033476;28;20468;-82
2023/06/04 13:44:15;;;;;;;5.03;1.40;;;;;;;;;;5017463;28;20429;-83
2023/06/04 13:46:42;;;;;;;2.58;1.20;;;;;;;;;;5036753;28;20041;-83
2023/06/04 13:49:09;;;;;;;2.63;1.20;;;;;;;;;;5035815;28;20053;-83
2023/06/04 13:51:36;;;;;;;2.60;1.35;;;;;;;;;;5037397;28;20049;-82
2023/06/04 13:54:02;;;;;;;3.03;1.10;;;;;;;;;;5043105;28;20107;-81
2023/06/04 13:56:29;;;;;;;2.03;1.38;;;;;;;;;;5021548;28;20046;-83
2023/06/04 13:58:56;;;;;;;2.67;1.35;;;;;;;;;;5026149;28;20068;-83
2023/06/04 14:01:22;;;;;;;2.72;1.45;;;;;;;;;;5024435;28;20038;-84
2023/06/04 14:03:49;;;;;;;7.25;1.30;;;;;;;;;;5022970;28;20049;-83
2023/06/04 14:06:16;;;;;;;2.35;1.30;;;;;;;;;;5022955;28;20113;-84
2023/06/04 14:08:43;;;;;;;5.05;1.30;;;;;;;;;;5024388;28;20070;-82
2023/06/04 14:11:10;;;;;;;2.85;1.27;;;;;;;;;;5023564;28;20038;-83
2023/06/04 14:13:38;;;;;;;4.25;1.00;;;;;;;;;;5025820;28;20465;-84
2023/06/04 14:16:05;;;;;;;7.13;1.20;;;;;;;;;;5024389;28;20046;-85
2023/06/04 14:18:31;;;;;;;3.80;1.40;;;;;;;;;;5025565;28;21704;-84
2023/06/04 14:20:58;;;;;;;3.60;1.25;;;;;;;;;;5022844;28;20053;-85
2023/06/04 14:23:25;;;;;;;6.25;1.55;;;;;;;;;;5024766;28;20061;-81
2023/06/04 14:25:51;;;;;;;7.05;1.40;;;;;;;;;;5024424;28;20133;-84
2023/06/04 14:28:20;;;;;;;2.70;1.23;;;;;;;;;;5023745;28;20371;-83
2023/06/04 14:30:47;;;;;;;4.25;1.08;;;;;;;;;;4998876;28;20041;-84
2023/06/04 14:33:14;;;;;;;3.35;1.45;;;;;;;;;;5013100;28;20063;-83
2023/06/04 14:35:46;;;;;;;3.13;1.30;;;;;;;;;;5012904;28;20121;-82
2023/06/04 14:38:22;;;;;;;3.13;1.30;;;;;;;;;;5014176;28;20060;-82
2023/06/04 14:41:34;;;;;;;2.58;1.08;;;;;;;;;;5015846;28;20057;-83
2023/06/04 14:44:01;;;;;;;1.95;1.20;;;;;;;;;;5001054;28;20046;-82
2023/06/04 14:46:30;;;;;;;2.42;1.27;;;;;;;;;;5021289;28;20049;-82
2023/06/04 14:49:00;;;;;;;1.98;1.33;;;;;;;;;;5022674;28;20045;-85
2023/06/04 14:51:26;;;;;;;3.38;1.20;;;;;;;;;;5022555;28;20058;-83
2023/06/04 14:53:53;;;;;;;3.10;1.40;;;;;;;;;;5024733;28;20620;-83
2023/06/04 14:56:20;;;;;;;4.05;1.20;;;;;;;;;;5023908;28;20045;-84
2023/06/04 14:58:46;;;;;;;2.97;1.17;;;;;;;;;;5022529;28;20053;-81
2023/06/04 15:01:13;;;;;;;3.78;1.23;;;;;;;;;;5023464;28;20029;-84
2023/06/04 15:03:40;;;;;;;2.97;1.48;;;;;;;;;;5025386;28;20068;-83
2023/06/04 15:06:07;;;;;;;2.05;1.17;;;;;;;;;;5025904;28;20125;-82
2023/06/04 15:08:45;;;;;;;9.55;1.45;;;;;;;;;;5024635;28;20542;-82
2023/06/04 15:11:13;;;;;;;13.45;1.60;;;;;;;;;;5005582;28;20066;-83
2023/06/04 15:13:40;;;;;;;3.22;1.30;;;;;;;;;;5021642;28;20049;-84
2023/06/04 15:16:07;;;;;;;5.75;1.33;;;;;;;;;;5005454;28;20053;-85
2023/06/04 15:18:33;;;;;;;16.52;1.40;;;;;;;;;;5020243;28;20050;-82
2023/06/04 15:21:00;;;;;;;5.45;1.30;;;;;;;;;;5020459;28;20099;-82
2023/06/04 15:23:27;;;;;;;6.38;1.17;;;;;;;;;;5021227;28;20472;-82
2023/06/04 15:25:54;;;;;;;10.45;1.23;;;;;;;;;;5021650;28;20064;-80